createdAt,value
2023-03-26T00:00:24.236Z,12.01
2023-03-26T00:00:57.799Z,12.02
2023-03-26T00:01:34.030Z,12.03
2023-03-26T00:02:09.066Z,12.03
2023-03-26T00:02:41.433Z,12.02
2023-03-26T00:03:17.233Z,12.02
2023-03-26T00:03:54.550Z,12.02
2023-03-26T00:04:28.221Z,12.00
2023-03-26T00:05:00.558Z,11.97
2023-03-26T00:05:35.594Z,11.97
2023-03-26T00:06:10.775Z,11.93
2023-03-26T00:06:43.029Z,11.93
2023-03-26T00:07:18.012Z,11.93
2023-03-26T00:07:51.843Z,11.92
2023-03-26T00:08:24.024Z,11.91
2023-03-26T00:09:00.169Z,11.91
2023-03-26T00:09:32.372Z,11.92
2023-03-26T00:10:05.166Z,11.89
2023-03-26T00:10:40.759Z,11.89
2023-03-26T00:11:15.901Z,11.88
2023-03-26T00:11:50.746Z,11.87
2023-03-26T00:12:22.920Z,11.87
2023-03-26T00:12:55.108Z,11.85
2023-03-26T00:13:31.014Z,11.85
2023-03-26T00:14:04.040Z,11.84
2023-03-26T00:14:36.364Z,11.84
2023-03-26T00:15:12.535Z,11.85
2023-03-26T00:15:44.840Z,11.84
2023-03-26T00:16:19.832Z,11.85
2023-03-26T00:16:54.749Z,11.85
2023-03-26T00:17:27.021Z,11.85
2023-03-26T00:18:00.893Z,11.85
2023-03-26T00:18:35.787Z,11.85
2023-03-26T00:19:10.892Z,11.83
2023-03-26T00:19:43.393Z,11.82
2023-03-26T00:20:15.725Z,11.81
2023-03-26T00:20:50.794Z,11.81
2023-03-26T00:21:28.048Z,11.82
2023-03-26T00:22:03.814Z,11.81
2023-03-26T00:22:36.047Z,11.82
2023-03-26T00:23:09.059Z,11.80
2023-03-26T00:23:44.096Z,11.80
2023-03-26T00:24:16.412Z,11.78
2023-03-26T00:24:51.006Z,11.77
2023-03-26T00:25:26.569Z,11.78
2023-03-26T00:25:59.009Z,11.77
2023-03-26T00:26:32.173Z,11.77
2023-03-26T00:27:08.992Z,11.76
2023-03-26T00:27:42.013Z,11.74
2023-03-26T00:28:17.295Z,11.71
2023-03-26T00:28:52.213Z,11.74
2023-03-26T00:29:24.898Z,11.73
2023-03-26T00:29:57.208Z,11.73
2023-03-26T00:30:32.069Z,11.74
2023-03-26T00:31:06.176Z,11.76
2023-03-26T00:31:40.056Z,11.76
2023-03-26T00:32:14.821Z,11.76
2023-03-26T00:32:53.368Z,11.76
2023-03-26T00:33:26.502Z,11.75
2023-03-26T00:34:05.798Z,11.75
2023-03-26T00:34:38.129Z,11.75
2023-03-26T00:35:11.357Z,11.76
2023-03-26T00:35:47.781Z,11.77
2023-03-26T00:36:20.822Z,11.75
2023-03-26T00:36:56.124Z,11.75
2023-03-26T00:37:28.389Z,11.74
2023-03-26T00:38:01.550Z,11.73
2023-03-26T00:38:39.096Z,11.74
2023-03-26T00:39:11.596Z,11.73
2023-03-26T00:39:44.860Z,11.72
2023-03-26T00:40:19.908Z,11.72
2023-03-26T00:40:58.482Z,11.73
2023-03-26T00:41:31.299Z,11.72
2023-03-26T00:42:07.458Z,11.72
2023-03-26T00:42:40.071Z,11.72
2023-03-26T00:43:19.161Z,11.71
2023-03-26T00:43:56.813Z,11.68
2023-03-26T00:44:29.063Z,11.66
2023-03-26T00:45:01.410Z,11.66
2023-03-26T00:45:33.618Z,11.67
2023-03-26T00:46:08.704Z,11.68
2023-03-26T00:46:41.097Z,11.69
2023-03-26T00:47:13.550Z,11.67
2023-03-26T00:47:48.436Z,11.68
2023-03-26T00:48:31.362Z,11.68
2023-03-26T00:49:14.963Z,11.68
2023-03-26T00:49:49.587Z,11.68
2023-03-26T00:50:21.828Z,11.68
2023-03-26T00:50:54.118Z,11.68
2023-03-26T00:51:30.020Z,11.67
2023-03-26T00:52:03.384Z,11.66
2023-03-26T00:52:36.393Z,11.68
2023-03-26T00:53:13.963Z,11.68
2023-03-26T00:53:48.544Z,11.66
2023-03-26T00:54:23.315Z,11.66
2023-03-26T00:54:57.084Z,11.68
2023-03-26T00:55:29.324Z,11.70
2023-03-26T00:56:02.040Z,11.72
2023-03-26T00:56:37.182Z,11.71
2023-03-26T00:57:10.697Z,11.69
2023-03-26T00:57:46.138Z,11.69
2023-03-26T00:58:22.513Z,11.68
2023-03-26T00:58:54.965Z,11.66
2023-03-26T00:59:30.624Z,11.66
2023-03-26T01:00:16.174Z,11.64
2023-03-26T01:00:53.215Z,11.62
2023-03-26T01:01:30.764Z,11.61
2023-03-26T01:02:04.548Z,11.61
2023-03-26T01:02:37.389Z,11.62
2023-03-26T01:03:27.800Z,11.63
2023-03-26T01:04:30.968Z,11.58
2023-03-26T01:05:36.420Z,11.54
2023-03-26T01:06:12.954Z,11.51
2023-03-26T01:06:47.882Z,11.52
2023-03-26T01:07:21.928Z,11.53
2023-03-26T01:07:54.639Z,11.54
2023-03-26T01:08:33.564Z,11.54
2023-03-26T01:09:14.670Z,11.54
2023-03-26T01:09:53.051Z,11.54
2023-03-26T01:10:25.699Z,11.55
2023-03-26T01:11:03.294Z,11.57
2023-03-26T01:11:36.086Z,11.57
2023-03-26T01:12:17.303Z,11.59
2023-03-26T01:12:49.731Z,11.58
2023-03-26T01:13:24.477Z,11.60
2023-03-26T01:14:02.927Z,11.59
2023-03-26T01:14:35.446Z,11.60
2023-03-26T01:15:10.017Z,11.60
2023-03-26T01:15:45.017Z,11.61
2023-03-26T01:16:23.534Z,11.64
2023-03-26T01:17:00.250Z,11.62
2023-03-26T01:17:34.487Z,11.62
2023-03-26T01:18:09.999Z,11.63
2023-03-26T01:18:43.271Z,11.63
2023-03-26T01:19:26.086Z,11.65
2023-03-26T01:20:11.165Z,11.64
2023-03-26T01:20:46.988Z,11.64
2023-03-26T01:21:28.782Z,11.65
2023-03-26T01:22:01.117Z,11.66
2023-03-26T01:22:39.629Z,11.65
2023-03-26T01:23:11.989Z,11.67
2023-03-26T01:23:49.150Z,11.68
2023-03-26T01:24:26.633Z,11.71
2023-03-26T01:24:58.854Z,11.71
2023-03-26T01:25:37.394Z,11.71
2023-03-26T01:26:19.155Z,11.72
2023-03-26T01:27:15.152Z,11.69
2023-03-26T01:27:52.527Z,11.67
2023-03-26T01:28:27.944Z,11.67
2023-03-26T01:29:08.475Z,11.67
2023-03-26T01:29:45.431Z,11.65
2023-03-26T01:30:27.561Z,11.67
2023-03-26T01:31:06.962Z,11.66
2023-03-26T01:31:48.780Z,11.65
2023-03-26T01:32:34.686Z,11.65
2023-03-26T01:33:16.477Z,11.64
2023-03-26T01:33:58.341Z,11.65
2023-03-26T01:34:42.239Z,11.64
2023-03-26T01:35:24.998Z,11.65
2023-03-26T01:36:01.180Z,11.65
2023-03-26T01:36:43.006Z,11.66
2023-03-26T01:37:22.335Z,11.66
2023-03-26T01:38:18.709Z,11.65
2023-03-26T01:39:00.639Z,11.64
2023-03-26T01:39:49.371Z,11.64
2023-03-26T01:40:27.217Z,11.66
2023-03-26T01:41:05.010Z,11.68
2023-03-26T01:41:44.943Z,11.69
2023-03-26T01:42:27.964Z,11.72
2023-03-26T01:43:07.254Z,11.69
2023-03-26T01:43:49.871Z,11.71
2023-03-26T01:44:31.369Z,11.72
2023-03-26T01:45:12.839Z,11.74
2023-03-26T01:45:48.137Z,11.75
2023-03-26T01:46:26.734Z,11.80
2023-03-26T01:47:00.356Z,11.81
2023-03-26T01:47:34.221Z,11.82
2023-03-26T01:48:11.484Z,11.84
2023-03-26T01:48:47.178Z,11.82
2023-03-26T01:49:20.228Z,11.82
2023-03-26T01:49:52.478Z,11.84
2023-03-26T01:50:27.413Z,11.86
2023-03-26T01:50:59.770Z,11.86
2023-03-26T01:51:33.977Z,11.88
2023-03-26T01:52:15.684Z,11.88
2023-03-26T01:52:48.042Z,11.87
2023-03-26T01:53:20.474Z,11.85
2023-03-26T01:53:56.590Z,11.90
2023-03-26T01:54:31.843Z,11.91
2023-03-26T01:55:11.895Z,11.91
2023-03-26T01:55:57.912Z,11.91
2023-03-26T01:56:40.154Z,11.89
2023-03-26T01:57:23.262Z,11.90
2023-03-26T01:58:08.863Z,11.88
2023-03-26T01:58:55.014Z,11.88
2023-03-26T01:59:45.680Z,11.86
2023-03-26T02:00:25.953Z,11.85
2023-03-26T02:01:06.553Z,11.79
2023-03-26T02:01:47.970Z,11.72
2023-03-26T02:02:26.326Z,11.69
2023-03-26T02:03:06.104Z,11.64
2023-03-26T02:03:46.130Z,11.58
2023-03-26T02:04:25.212Z,11.54
2023-03-26T02:05:05.080Z,11.49
2023-03-26T02:05:44.772Z,11.44
2023-03-26T02:06:24.052Z,11.39
2023-03-26T02:07:05.917Z,11.36
2023-03-26T02:07:48.052Z,11.36
2023-03-26T02:08:24.691Z,11.33
2023-03-26T02:09:03.054Z,11.29
2023-03-26T02:09:46.020Z,11.25
2023-03-26T02:10:26.358Z,11.21
2023-03-26T02:11:02.538Z,11.13
2023-03-26T02:11:37.267Z,11.13
2023-03-26T02:12:10.421Z,11.11
2023-03-26T02:12:46.551Z,11.09
2023-03-26T02:13:19.669Z,11.08
2023-03-26T02:13:52.534Z,11.02
2023-03-26T02:14:28.352Z,11.04
2023-03-26T02:15:02.002Z,11.04
2023-03-26T02:15:34.406Z,10.97
2023-03-26T02:16:12.525Z,10.92
2023-03-26T02:16:47.204Z,10.88
2023-03-26T02:17:24.513Z,10.85
2023-03-26T02:18:00.070Z,10.74
2023-03-26T02:18:37.366Z,10.68
2023-03-26T02:19:21.975Z,10.70
2023-03-26T02:19:57.427Z,10.68
2023-03-26T02:20:30.408Z,10.65
2023-03-26T02:21:05.549Z,10.69
2023-03-26T02:21:40.499Z,10.71
2023-03-26T02:22:15.844Z,10.74
2023-03-26T02:22:49.929Z,10.76
2023-03-26T02:23:29.961Z,10.77
2023-03-26T02:24:03.461Z,10.80
2023-03-26T02:24:38.739Z,10.78
2023-03-26T02:25:15.817Z,10.78
2023-03-26T02:25:51.224Z,10.74
2023-03-26T02:26:24.708Z,10.74
2023-03-26T02:27:08.091Z,10.72
2023-03-26T02:27:41.039Z,10.69
2023-03-26T02:28:17.241Z,10.62
2023-03-26T02:28:52.272Z,10.56
2023-03-26T02:29:26.735Z,10.51
2023-03-26T02:29:59.659Z,10.47
2023-03-26T02:30:34.536Z,10.46
2023-03-26T02:31:10.020Z,10.41
2023-03-26T02:31:43.604Z,10.37
2023-03-26T02:32:20.337Z,10.31
2023-03-26T02:32:54.415Z,10.29
2023-03-26T02:33:28.566Z,10.28
2023-03-26T02:34:03.532Z,10.30
2023-03-26T02:34:39.210Z,10.23
2023-03-26T02:35:12.480Z,10.26
2023-03-26T02:35:47.679Z,10.22
2023-03-26T02:36:24.862Z,10.22
2023-03-26T02:37:01.035Z,10.17
2023-03-26T02:37:34.201Z,10.16
2023-03-26T02:38:15.457Z,10.09
2023-03-26T02:38:50.811Z,10.10
2023-03-26T02:39:23.551Z,10.07
2023-03-26T02:40:11.951Z,10.05
2023-03-26T02:40:49.786Z,10.00
2023-03-26T02:41:25.394Z,9.95
2023-03-26T02:42:20.038Z,9.93
2023-03-26T02:42:53.893Z,9.92
2023-03-26T02:43:30.626Z,9.89
2023-03-26T02:44:02.965Z,9.90
2023-03-26T02:44:58.060Z,9.87
2023-03-26T02:45:50.976Z,9.86
2023-03-26T02:46:45.853Z,9.85
2023-03-26T02:47:38.040Z,9.78
2023-03-26T02:48:34.874Z,9.76
2023-03-26T02:49:17.700Z,9.79
2023-03-26T02:49:49.952Z,9.83
2023-03-26T02:50:32.768Z,9.81
2023-03-26T02:51:25.442Z,9.80
2023-03-26T02:52:08.247Z,9.81
2023-03-26T02:52:43.233Z,9.84
2023-03-26T02:53:15.547Z,9.87
2023-03-26T02:53:54.961Z,9.89
2023-03-26T02:54:46.223Z,9.92
2023-03-26T02:55:31.528Z,9.99
2023-03-26T02:56:07.784Z,10.07
2023-03-26T02:56:50.166Z,10.10
2023-03-26T02:57:58.171Z,10.13
2023-03-26T02:58:37.055Z,10.18
2023-03-26T02:59:09.293Z,10.23
2023-03-26T02:59:46.579Z,10.27
2023-03-26T03:00:42.011Z,10.30
2023-03-26T03:01:35.337Z,10.33
2023-03-26T03:02:07.872Z,10.36
2023-03-26T03:02:44.527Z,10.36
2023-03-26T03:03:36.566Z,10.36
2023-03-26T03:04:28.176Z,10.33
2023-03-26T03:05:06.007Z,10.33
2023-03-26T03:05:43.325Z,10.33
2023-03-26T03:06:21.358Z,10.35
2023-03-26T03:07:00.320Z,10.35
2023-03-26T03:07:32.778Z,10.35
2023-03-26T03:08:06.755Z,10.30
2023-03-26T03:08:46.318Z,10.29
2023-03-26T03:09:36.316Z,10.24
2023-03-26T03:10:32.921Z,10.13
2023-03-26T03:11:17.821Z,10.13
2023-03-26T03:11:56.751Z,10.15
2023-03-26T03:12:31.575Z,10.18
2023-03-26T03:13:06.118Z,10.18
2023-03-26T03:13:38.453Z,10.22
2023-03-26T03:14:13.477Z,10.25
2023-03-26T03:14:45.785Z,10.27
2023-03-26T03:15:18.266Z,10.26
2023-03-26T03:15:54.126Z,10.25
2023-03-26T03:16:26.848Z,10.27
2023-03-26T03:16:59.659Z,10.30
2023-03-26T03:17:34.634Z,10.31
2023-03-26T03:18:07.344Z,10.29
2023-03-26T03:18:39.708Z,10.28
2023-03-26T03:19:15.351Z,10.28
2023-03-26T03:19:47.802Z,10.23
2023-03-26T03:20:22.176Z,10.23
2023-03-26T03:20:57.259Z,10.17
2023-03-26T03:21:30.106Z,10.14
2023-03-26T03:22:04.888Z,10.08
2023-03-26T03:22:38.773Z,10.08
2023-03-26T03:23:11.173Z,10.10
2023-03-26T03:23:43.457Z,10.15
2023-03-26T03:24:21.323Z,10.12
2023-03-26T03:24:57.870Z,10.08
2023-03-26T03:25:30.363Z,10.04
2023-03-26T03:26:06.963Z,10.06
2023-03-26T03:26:41.458Z,10.06
2023-03-26T03:27:41.733Z,9.98
2023-03-26T03:28:18.442Z,9.95
2023-03-26T03:28:53.664Z,9.97
2023-03-26T03:29:26.021Z,10.00
2023-03-26T03:29:59.304Z,9.99
2023-03-26T03:30:54.468Z,9.99
2023-03-26T03:31:33.052Z,9.99
2023-03-26T03:32:09.195Z,10.00
2023-03-26T03:32:50.166Z,10.00
2023-03-26T03:33:26.575Z,9.99
2023-03-26T03:33:58.942Z,10.00
2023-03-26T03:34:34.614Z,9.99
2023-03-26T03:35:07.857Z,10.03
2023-03-26T03:35:41.762Z,10.05
2023-03-26T03:36:20.956Z,10.06
2023-03-26T03:37:02.561Z,10.10
2023-03-26T03:37:48.250Z,10.17
2023-03-26T03:38:20.483Z,10.23
2023-03-26T03:38:55.532Z,10.26
2023-03-26T03:39:31.832Z,10.24
2023-03-26T03:40:07.892Z,10.21
2023-03-26T03:40:41.195Z,10.16
2023-03-26T03:41:13.446Z,10.16
2023-03-26T03:41:52.124Z,10.15
2023-03-26T03:42:24.724Z,10.12
2023-03-26T03:43:05.095Z,10.08
2023-03-26T03:43:49.164Z,10.05
2023-03-26T03:44:26.679Z,10.03
2023-03-26T03:44:59.533Z,10.03
2023-03-26T03:46:05.883Z,9.93
2023-03-26T03:46:56.206Z,9.86
2023-03-26T03:47:31.319Z,9.93
2023-03-26T03:48:04.401Z,9.87
2023-03-26T03:48:48.425Z,9.84
2023-03-26T03:49:24.153Z,9.88
2023-03-26T03:50:00.269Z,9.88
2023-03-26T03:50:35.467Z,9.89
2023-03-26T03:51:26.867Z,9.89
2023-03-26T03:52:04.315Z,9.88
2023-03-26T03:52:43.382Z,9.88
2023-03-26T03:53:26.209Z,9.90
2023-03-26T03:54:00.150Z,9.85
2023-03-26T03:54:52.723Z,9.86
2023-03-26T03:55:43.333Z,9.87
2023-03-26T03:56:19.284Z,9.89
2023-03-26T03:57:27.292Z,9.82
2023-03-26T03:58:09.496Z,9.81
2023-03-26T03:58:42.482Z,9.85
2023-03-26T03:59:22.248Z,9.86
2023-03-26T03:59:58.360Z,9.88
2023-03-26T04:00:33.070Z,9.89
2023-03-26T04:01:30.941Z,9.91
2023-03-26T04:02:09.445Z,9.90
2023-03-26T04:02:48.109Z,9.86
2023-03-26T04:03:34.199Z,9.86
2023-03-26T04:04:09.935Z,9.81
2023-03-26T04:05:00.452Z,9.82
2023-03-26T04:05:33.413Z,9.85
2023-03-26T04:06:07.513Z,9.87
2023-03-26T04:06:42.725Z,9.86
2023-03-26T04:07:16.856Z,9.85
2023-03-26T04:08:07.914Z,9.75
2023-03-26T04:08:51.492Z,9.79
2023-03-26T04:09:23.928Z,9.81
2023-03-26T04:09:57.660Z,9.81
2023-03-26T04:10:35.735Z,9.80
2023-03-26T04:11:16.914Z,9.79
2023-03-26T04:12:18.635Z,9.76
2023-03-26T04:13:04.804Z,9.72
2023-03-26T04:14:02.548Z,9.64
2023-03-26T04:15:02.064Z,9.62
2023-03-26T04:15:37.488Z,9.67
2023-03-26T04:16:10.607Z,9.67
2023-03-26T04:16:43.234Z,9.65
2023-03-26T04:17:18.176Z,9.67
2023-03-26T04:17:52.369Z,9.65
2023-03-26T04:18:26.568Z,9.63
2023-03-26T04:19:04.148Z,9.64
2023-03-26T04:19:37.607Z,9.63
2023-03-26T04:20:14.972Z,9.65
2023-03-26T04:20:51.970Z,9.64
2023-03-26T04:21:30.675Z,9.62
2023-03-26T04:22:03.377Z,9.63
2023-03-26T04:22:43.840Z,9.60
2023-03-26T04:23:19.143Z,9.59
2023-03-26T04:23:57.644Z,9.54
2023-03-26T04:24:55.423Z,9.49
2023-03-26T04:25:43.989Z,9.48
2023-03-26T04:26:26.120Z,9.48
2023-03-26T04:27:13.438Z,9.48
2023-03-26T04:27:47.990Z,9.46
2023-03-26T04:28:47.090Z,9.45
2023-03-26T04:29:32.988Z,9.43
2023-03-26T04:30:11.149Z,9.47
2023-03-26T04:30:45.178Z,9.44
2023-03-26T04:32:06.697Z,9.36
2023-03-26T04:32:40.628Z,9.39
2023-03-26T04:33:15.730Z,9.41
2023-03-26T04:33:54.475Z,9.43
2023-03-26T04:34:27.883Z,9.42
2023-03-26T04:35:26.479Z,9.40
2023-03-26T04:36:04.100Z,9.38
2023-03-26T04:36:42.630Z,9.35
2023-03-26T04:37:26.790Z,9.36
2023-03-26T04:38:25.358Z,9.36
2023-03-26T04:39:05.460Z,9.34
2023-03-26T04:40:10.664Z,9.33
2023-03-26T04:40:50.014Z,9.37
2023-03-26T04:41:39.259Z,9.38
2023-03-26T04:42:20.190Z,9.40
2023-03-26T04:43:28.444Z,9.34
2023-03-26T04:44:38.994Z,9.33
2023-03-26T04:45:24.489Z,9.35
2023-03-26T04:46:03.656Z,9.40
2023-03-26T04:46:43.992Z,9.44
2023-03-26T04:47:35.253Z,9.44
2023-03-26T04:48:08.821Z,9.47
2023-03-26T04:48:43.958Z,9.45
2023-03-26T04:49:19.451Z,9.42
2023-03-26T04:49:52.209Z,9.37
2023-03-26T04:50:34.681Z,9.39
2023-03-26T04:51:10.281Z,9.40
2023-03-26T04:51:46.975Z,9.43
2023-03-26T04:52:43.960Z,9.42
2023-03-26T04:53:53.364Z,9.41
2023-03-26T04:54:41.189Z,9.41
2023-03-26T04:55:24.644Z,9.38
2023-03-26T04:56:20.715Z,9.35
2023-03-26T04:57:34.314Z,9.33
2023-03-26T04:58:37.820Z,9.34
2023-03-26T04:59:18.660Z,9.37
2023-03-26T04:59:53.472Z,9.34
2023-03-26T05:00:28.724Z,9.38
2023-03-26T05:01:10.204Z,9.35
2023-03-26T05:01:46.158Z,9.36
2023-03-26T05:02:23.219Z,9.36
2023-03-26T05:02:59.657Z,9.29
2023-03-26T05:03:32.775Z,9.33
2023-03-26T05:04:13.224Z,9.35
2023-03-26T05:04:46.283Z,9.37
2023-03-26T05:05:19.176Z,9.40
2023-03-26T05:05:54.264Z,9.43
2023-03-26T05:06:28.797Z,9.46
2023-03-26T05:07:01.116Z,9.45
2023-03-26T05:07:43.925Z,9.44
2023-03-26T05:08:19.158Z,9.45
2023-03-26T05:08:51.521Z,9.46
2023-03-26T05:09:44.560Z,9.46
2023-03-26T05:10:28.432Z,9.46
2023-03-26T05:11:13.134Z,9.49
2023-03-26T05:11:48.632Z,9.51
2023-03-26T05:12:21.784Z,9.53
2023-03-26T05:13:22.724Z,9.51
2023-03-26T05:14:01.310Z,9.51
2023-03-26T05:14:33.764Z,9.50
2023-03-26T05:15:14.426Z,9.53
2023-03-26T05:16:00.662Z,9.50
2023-03-26T05:16:45.009Z,9.50
2023-03-26T05:17:19.122Z,9.50
2023-03-26T05:17:53.337Z,9.53
2023-03-26T05:18:42.979Z,9.52
2023-03-26T05:19:15.559Z,9.51
2023-03-26T05:19:47.985Z,9.40
2023-03-26T05:20:24.616Z,9.40
2023-03-26T05:20:57.709Z,9.43
2023-03-26T05:21:30.971Z,9.44
2023-03-26T05:22:06.092Z,9.47
2023-03-26T05:22:43.038Z,9.47
2023-03-26T05:23:21.743Z,9.47
2023-03-26T05:24:02.294Z,9.44
2023-03-26T05:24:34.492Z,9.43
2023-03-26T05:25:08.514Z,9.46
2023-03-26T05:25:43.701Z,9.49
2023-03-26T05:26:20.934Z,9.50
2023-03-26T05:26:53.639Z,9.51
2023-03-26T05:27:28.474Z,9.51
2023-03-26T05:28:03.361Z,9.54
2023-03-26T05:28:50.460Z,9.54
2023-03-26T05:29:34.219Z,9.57
2023-03-26T05:30:13.412Z,9.57
2023-03-26T05:30:49.528Z,9.59
2023-03-26T05:31:24.775Z,9.60
2023-03-26T05:32:00.593Z,9.64
2023-03-26T05:32:35.008Z,9.66
2023-03-26T05:33:09.982Z,9.71
2023-03-26T05:33:50.775Z,9.73
2023-03-26T05:34:26.510Z,9.76
2023-03-26T05:35:01.906Z,9.79
2023-03-26T05:35:43.556Z,9.80
2023-03-26T05:36:17.485Z,9.78
2023-03-26T05:36:59.231Z,9.77
2023-03-26T05:37:51.608Z,9.77
2023-03-26T05:38:43.902Z,9.78
2023-03-26T05:39:22.826Z,9.77
2023-03-26T05:40:18.412Z,9.75
2023-03-26T05:41:16.824Z,9.76
2023-03-26T05:41:50.422Z,9.78
2023-03-26T05:42:24.305Z,9.80
2023-03-26T05:43:22.512Z,9.81
2023-03-26T05:44:26.697Z,9.87
2023-03-26T05:45:01.539Z,9.91
2023-03-26T05:45:48.046Z,9.96
2023-03-26T05:46:54.708Z,9.88
2023-03-26T05:47:45.103Z,9.87
2023-03-26T05:48:21.068Z,9.92
2023-03-26T05:48:54.189Z,9.95
2023-03-26T05:49:44.933Z,10.00
2023-03-26T05:50:17.292Z,9.95
2023-03-26T05:50:50.125Z,9.96
2023-03-26T05:51:26.288Z,9.99
2023-03-26T05:52:15.415Z,10.00
2023-03-26T05:53:24.526Z,9.99
2023-03-26T05:54:18.275Z,10.01
2023-03-26T05:55:13.603Z,9.99
2023-03-26T05:56:05.138Z,9.98
2023-03-26T05:57:02.722Z,9.94
2023-03-26T05:58:10.665Z,9.94
2023-03-26T05:59:04.017Z,9.92
2023-03-26T06:00:15.389Z,9.93
2023-03-26T06:00:59.555Z,9.96
2023-03-26T06:01:45.083Z,9.93
2023-03-26T06:02:35.310Z,9.93
2023-03-26T06:03:35.199Z,9.89
2023-03-26T06:04:24.570Z,9.89
2023-03-26T06:05:23.196Z,9.88
2023-03-26T06:06:15.800Z,9.90
2023-03-26T06:06:54.251Z,9.90
2023-03-26T06:07:29.925Z,9.94
2023-03-26T06:08:22.275Z,9.93
2023-03-26T06:09:00.932Z,9.92
2023-03-26T06:09:34.711Z,9.90
2023-03-26T06:10:08.194Z,9.91
2023-03-26T06:10:44.138Z,9.92
2023-03-26T06:11:18.119Z,9.90
2023-03-26T06:11:50.480Z,9.88
2023-03-26T06:12:26.188Z,9.89
2023-03-26T06:12:58.476Z,9.88
2023-03-26T06:13:30.849Z,9.89
2023-03-26T06:14:06.035Z,9.91
2023-03-26T06:14:39.586Z,9.87
2023-03-26T06:15:21.164Z,9.85
2023-03-26T06:16:02.581Z,9.84
2023-03-26T06:16:43.475Z,9.83
2023-03-26T06:17:25.199Z,9.82
2023-03-26T06:18:11.457Z,9.80
2023-03-26T06:18:58.777Z,9.78
2023-03-26T06:19:53.455Z,9.75
2023-03-26T06:20:44.559Z,9.74
2023-03-26T06:21:36.403Z,9.75
2023-03-26T06:22:15.787Z,9.73
2023-03-26T06:23:06.404Z,9.72
2023-03-26T06:24:10.618Z,9.69
2023-03-26T06:24:53.066Z,9.70
2023-03-26T06:25:54.585Z,9.71
2023-03-26T06:27:07.913Z,9.64
2023-03-26T06:28:09.681Z,9.64
2023-03-26T06:29:03.858Z,9.64
2023-03-26T06:29:49.966Z,9.66
2023-03-26T06:30:47.939Z,9.66
2023-03-26T06:31:43.512Z,9.67
2023-03-26T06:32:26.473Z,9.69
2023-03-26T06:33:04.221Z,9.70
2023-03-26T06:33:42.604Z,9.73
2023-03-26T06:34:21.984Z,9.76
2023-03-26T06:34:54.381Z,9.80
2023-03-26T06:35:26.838Z,9.84
2023-03-26T06:36:02.170Z,9.87
2023-03-26T06:36:34.561Z,9.89
2023-03-26T06:37:06.939Z,9.92
2023-03-26T06:37:42.578Z,9.96
2023-03-26T06:38:14.967Z,9.96
2023-03-26T06:38:50.260Z,9.99
2023-03-26T06:39:25.328Z,10.01
2023-03-26T06:40:36.207Z,9.97
2023-03-26T06:41:28.726Z,9.96
2023-03-26T06:43:06.330Z,9.95
2023-03-26T06:43:54.304Z,9.94
2023-03-26T06:44:44.988Z,9.93
2023-03-26T06:45:39.980Z,9.94
2023-03-26T06:46:32.905Z,9.91
2023-03-26T06:47:26.304Z,9.95
2023-03-26T06:47:58.631Z,9.98
2023-03-26T06:48:47.922Z,10.00
2023-03-26T06:49:53.027Z,10.00
2023-03-26T06:50:48.180Z,10.01
2023-03-26T06:51:36.024Z,9.98
2023-03-26T06:52:44.791Z,9.95
2023-03-26T06:53:40.112Z,9.98
2023-03-26T06:54:37.933Z,10.00
2023-03-26T06:55:31.504Z,10.03
2023-03-26T06:56:29.342Z,10.06
2023-03-26T06:57:18.162Z,10.08
2023-03-26T06:58:13.716Z,10.10
2023-03-26T06:58:46.042Z,10.15
2023-03-26T06:59:38.949Z,10.13
2023-03-26T07:00:29.841Z,10.16
2023-03-26T07:01:30.885Z,10.19
2023-03-26T07:02:21.534Z,10.22
2023-03-26T07:03:17.587Z,10.26
2023-03-26T07:04:08.237Z,10.28
2023-03-26T07:05:01.694Z,10.31
2023-03-26T07:06:05.945Z,10.32
2023-03-26T07:06:56.460Z,10.36
2023-03-26T07:07:50.282Z,10.34
2023-03-26T07:08:41.716Z,10.39
2023-03-26T07:09:45.866Z,10.44
2023-03-26T07:10:37.007Z,10.49
2023-03-26T07:11:30.610Z,10.52
2023-03-26T07:12:26.134Z,10.55
2023-03-26T07:13:23.841Z,10.60
2023-03-26T07:14:01.864Z,10.64
2023-03-26T07:15:10.596Z,10.65
2023-03-26T07:16:09.363Z,10.66
2023-03-26T07:17:19.524Z,10.66
2023-03-26T07:17:57.971Z,10.70
2023-03-26T07:18:37.277Z,10.74
2023-03-26T07:19:14.415Z,10.76
2023-03-26T07:19:47.602Z,10.80
2023-03-26T07:20:20.022Z,10.83
2023-03-26T07:20:55.758Z,10.86
2023-03-26T07:21:30.142Z,10.88
2023-03-26T07:22:03.174Z,10.90
2023-03-26T07:22:57.237Z,10.90
2023-03-26T07:23:42.404Z,10.92
2023-03-26T07:24:54.210Z,10.90
2023-03-26T07:25:46.127Z,10.90
2023-03-26T07:26:33.406Z,10.95
2023-03-26T07:27:46.645Z,10.93
2023-03-26T07:28:31.888Z,10.94
2023-03-26T07:29:28.162Z,10.98
2023-03-26T07:30:35.492Z,11.00
2023-03-26T07:31:30.746Z,11.03
2023-03-26T07:32:28.501Z,11.06
2023-03-26T07:33:24.656Z,11.10
2023-03-26T07:34:40.527Z,11.13
2023-03-26T07:35:30.050Z,11.17
2023-03-26T07:36:31.689Z,11.22
2023-03-26T07:37:37.514Z,11.25
2023-03-26T07:38:46.372Z,11.29
2023-03-26T07:39:59.573Z,11.32
2023-03-26T07:41:03.954Z,11.38
2023-03-26T07:41:44.535Z,11.42
2023-03-26T07:42:49.213Z,11.46
2023-03-26T07:43:51.794Z,11.53
2023-03-26T07:44:53.707Z,11.61
2023-03-26T07:45:47.103Z,11.68
2023-03-26T07:46:34.275Z,11.75
2023-03-26T07:47:29.902Z,11.80
2023-03-26T07:48:25.812Z,11.84
2023-03-26T07:49:13.249Z,11.89
2023-03-26T07:50:18.403Z,11.90
2023-03-26T07:51:21.398Z,11.92
2023-03-26T07:52:23.672Z,11.94
2023-03-26T07:53:25.438Z,11.98
2023-03-26T07:54:04.599Z,12.01
2023-03-26T07:54:56.538Z,12.04
2023-03-26T07:55:55.558Z,12.06
2023-03-26T07:56:55.030Z,12.09
2023-03-26T07:58:19.731Z,12.09
2023-03-26T07:59:25.961Z,12.00
2023-03-26T08:00:22.467Z,11.97
2023-03-26T08:01:10.550Z,11.97
2023-03-26T08:01:53.189Z,11.94
2023-03-26T08:02:53.429Z,11.89
2023-03-26T08:04:24.636Z,11.85
2023-03-26T08:05:29.528Z,11.88
2023-03-26T08:06:34.326Z,11.89
2023-03-26T08:07:37.791Z,11.91
2023-03-26T08:08:31.995Z,11.96
2023-03-26T08:09:41.292Z,11.98
2023-03-26T08:10:26.364Z,11.99
2023-03-26T08:11:20.981Z,12.01
2023-03-26T08:12:01.463Z,12.02
2023-03-26T08:12:54.211Z,12.03
2023-03-26T08:13:39.290Z,12.06
2023-03-26T08:14:26.477Z,12.09
2023-03-26T08:15:05.560Z,12.13
2023-03-26T08:15:46.138Z,12.15
2023-03-26T08:16:27.077Z,12.21
2023-03-26T08:17:05.198Z,12.28
2023-03-26T08:17:45.786Z,12.33
2023-03-26T08:18:31.646Z,12.38
2023-03-26T08:19:19.114Z,12.42
2023-03-26T08:20:02.604Z,12.44
2023-03-26T08:20:48.245Z,12.45
2023-03-26T08:21:25.380Z,12.47
2023-03-26T08:22:06.360Z,12.49
2023-03-26T08:22:41.517Z,12.49
2023-03-26T08:23:22.045Z,12.47
2023-03-26T08:24:07.315Z,12.45
2023-03-26T08:24:50.296Z,12.46
2023-03-26T08:25:28.340Z,12.45
2023-03-26T08:26:09.586Z,12.47
2023-03-26T08:26:52.262Z,12.46
2023-03-26T08:27:38.348Z,12.51
2023-03-26T08:28:27.261Z,12.54
2023-03-26T08:29:13.220Z,12.58
2023-03-26T08:29:54.566Z,12.60
2023-03-26T08:30:31.230Z,12.62
2023-03-26T08:31:04.233Z,12.64
2023-03-26T08:31:40.428Z,12.69
2023-03-26T08:32:19.178Z,12.75
2023-03-26T08:32:56.507Z,12.79
2023-03-26T08:33:31.001Z,12.82
2023-03-26T08:34:05.925Z,12.87
2023-03-26T08:34:39.216Z,12.91
2023-03-26T08:35:13.888Z,12.93
2023-03-26T08:35:52.101Z,12.93
2023-03-26T08:36:24.331Z,12.99
2023-03-26T08:36:56.729Z,13.01
2023-03-26T08:37:31.871Z,13.02
2023-03-26T08:38:04.206Z,13.04
2023-03-26T08:38:39.324Z,13.07
2023-03-26T08:39:11.912Z,13.10
2023-03-26T08:39:44.325Z,13.11
2023-03-26T08:40:32.829Z,13.15
2023-03-26T08:41:34.986Z,13.14
2023-03-26T08:42:54.434Z,13.14
2023-03-26T08:43:56.689Z,13.12
2023-03-26T08:45:01.324Z,13.11
2023-03-26T08:45:59.556Z,13.12
2023-03-26T08:47:05.807Z,13.16
2023-03-26T08:48:13.762Z,13.24
2023-03-26T08:49:24.891Z,13.30
2023-03-26T08:50:21.672Z,13.34
2023-03-26T08:51:35.528Z,13.36
2023-03-26T08:52:52.029Z,13.38
2023-03-26T08:53:53.659Z,13.38
2023-03-26T08:54:50.212Z,13.37
2023-03-26T08:55:48.863Z,13.34
2023-03-26T08:56:29.794Z,13.32
2023-03-26T08:57:27.055Z,13.33
2023-03-26T08:58:29.914Z,13.35
2023-03-26T08:59:48.638Z,13.37
2023-03-26T09:00:47.025Z,13.42
2023-03-26T09:02:01.097Z,13.47
2023-03-26T09:02:59.485Z,13.49
2023-03-26T09:04:02.551Z,13.53
2023-03-26T09:05:12.375Z,13.54
2023-03-26T09:06:33.972Z,13.57
2023-03-26T09:07:34.561Z,13.58
2023-03-26T09:08:39.126Z,13.57
2023-03-26T09:09:53.261Z,13.59
2023-03-26T09:10:49.398Z,13.64
2023-03-26T09:12:08.420Z,13.67
2023-03-26T09:13:14.987Z,13.64
2023-03-26T09:14:30.504Z,13.63
2023-03-26T09:15:27.472Z,13.56
2023-03-26T09:16:30.198Z,13.49
2023-03-26T09:17:57.989Z,13.43